»·PEaware :: SKW800 KLWS-KBOI

SKW800 :: KLWS-KBOI

FLIGHT INFORMATION

Flight Status: Arrived
Operator:
SkyWest Airlines
More flights by this operator :: More flights under this callsign
Pilot: Scott L. (17677)
Aircraft: SAAB 340
(SF34)
More flights by this aircraft type
Origin: KLWS Lewiston-Nez Perce Co
United States
Destination: KBOI Boise Air Terminal/Gowen
United States
More flights between these airports :: More routes between these airports
Route: POTOR2 CLOVA MELLR V253 SALLA
File this flight plan on PilotEdge
Remarks:
Altitude:
(Current/Filed)
19,000ft
Speed:
(Current/Filed)
225kts
Departed: 04-May-20 10:37 AM
Arrived: 04-May-20 11:30 AM
Distance/Time
Traveled:
172nm/0:53
Distance/Time
To Go:
Arrived

Flight Plot

Page will automatically refresh every two minutes.


Map Options




Map Legend


Flown Route
Filed Route
Departure Airport
Arrival Airport
Navaid (VOR, NDB)
Fix

Horizontal Profiles

Position Reports

Time Latitude Longitude Heading Altitude Ground
Speed
04-May-20 09:31 46.376542 -117.011293 72 1408ft 0kts
04-May-20 09:33 46.376542 -117.011293 72 1408ft 0kts
04-May-20 09:34 46.376542 -117.011293 72 1408ft 0kts
04-May-20 09:34 46.376542 -117.011293 72 1408ft 0kts
04-May-20 09:35 46.376542 -117.011293 72 1408ft 0kts
04-May-20 09:37 46.376542 -117.011293 72 1408ft 0kts
04-May-20 09:37 46.376542 -117.011293 72 1408ft 0kts
04-May-20 09:38 46.376542 -117.011293 72 1408ft 0kts
04-May-20 09:40 46.376542 -117.011293 72 1408ft 0kts
04-May-20 09:40 46.376542 -117.011293 72 1408ft 0kts
04-May-20 09:41 46.376542 -117.011293 72 1408ft 0kts
04-May-20 09:42 46.376542 -117.011293 72 1408ft 0kts
04-May-20 09:43 46.376542 -117.011293 72 1408ft 0kts
04-May-20 09:44 46.376542 -117.011293 72 1408ft 0kts
04-May-20 09:45 46.376542 -117.011293 72 1408ft 0kts
04-May-20 09:46 46.376542 -117.011293 72 1408ft 0kts
04-May-20 09:47 46.376542 -117.011293 72 1408ft 0kts
04-May-20 09:48 46.376542 -117.011293 72 1408ft 0kts
04-May-20 09:49 46.376542 -117.011293 72 1408ft 0kts
04-May-20 09:50 46.376542 -117.011293 72 1408ft 0kts
04-May-20 09:51 46.376542 -117.011293 72 1408ft 0kts
04-May-20 09:52 46.376542 -117.011293 72 1408ft 0kts
04-May-20 09:53 46.376542 -117.011293 72 1408ft 0kts
04-May-20 09:54 46.376542 -117.011293 72 1408ft 0kts
04-May-20 09:55 46.376542 -117.011293 72 1408ft 0kts
04-May-20 09:56 46.376542 -117.011293 72 1408ft 0kts
04-May-20 09:57 46.376542 -117.011293 72 1408ft 0kts
04-May-20 09:58 46.376542 -117.011293 72 1408ft 0kts
04-May-20 09:59 46.376542 -117.011293 72 1408ft 0kts
04-May-20 10:00 46.376542 -117.011293 72 1408ft 0kts
04-May-20 10:01 46.376542 -117.011293 72 1408ft 0kts
04-May-20 10:02 46.376542 -117.011293 72 1408ft 0kts
04-May-20 10:03 46.376542 -117.011293 72 1408ft 0kts
04-May-20 10:04 46.376542 -117.011293 72 1408ft 0kts
04-May-20 10:05 46.376542 -117.011293 72 1408ft 0kts
04-May-20 10:06 46.376542 -117.011293 72 1408ft 0kts
04-May-20 10:07 46.376542 -117.011293 72 1408ft 0kts
04-May-20 10:08 46.376542 -117.011293 72 1408ft 0kts
04-May-20 10:09 46.376542 -117.011293 72 1408ft 0kts
04-May-20 10:10 46.376542 -117.011293 72 1408ft 0kts
04-May-20 10:11 46.376542 -117.011293 72 1408ft 0kts
04-May-20 10:12 46.376542 -117.011293 72 1408ft 0kts
04-May-20 10:13 46.376542 -117.011293 72 1408ft 0kts
04-May-20 10:14 46.376542 -117.011293 72 1408ft 0kts
04-May-20 10:15 46.376542 -117.011293 72 1408ft 0kts
04-May-20 10:16 46.376542 -117.011293 72 1408ft 0kts
04-May-20 10:17 46.376542 -117.011293 72 1408ft 0kts
04-May-20 10:18 46.376542 -117.011293 72 1408ft 0kts
04-May-20 10:19 46.376542 -117.011293 72 1408ft 0kts
04-May-20 10:20 46.376542 -117.011293 72 1408ft 0kts
04-May-20 10:21 46.376542 -117.011293 72 1408ft 0kts
04-May-20 10:22 46.376542 -117.011293 72 1408ft 0kts
04-May-20 10:23 46.376542 -117.011293 72 1408ft 0kts
04-May-20 10:24 46.376542 -117.011293 72 1408ft 0kts
04-May-20 10:25 46.376542 -117.011293 72 1408ft 0kts
04-May-20 10:26 46.376542 -117.011293 72 1408ft 0kts
04-May-20 10:27 46.376542 -117.011293 72 1408ft 0kts
04-May-20 10:28 46.376403 -117.011944 72 1408ft 0kts
04-May-20 10:29 46.376403 -117.011944 72 1408ft 0kts
04-May-20 10:30 46.376403 -117.011943 72 1408ft 0kts
04-May-20 10:31 46.376403 -117.011943 72 1408ft 0kts
04-May-20 10:32 46.376709 -117.011957 332 1408ft 2kts
04-May-20 10:33 46.374712 -117.014286 221 1408ft 25kts
04-May-20 10:34 46.374135 -117.020601 279 1408ft 21kts
04-May-20 10:35 46.373776 -117.027290 130 1408ft 7kts
04-May-20 10:36 46.371563 -117.006474 95 1563ft 158kts
04-May-20 10:37 46.343771 -116.939810 153 3474ft 243kts
04-May-20 10:38 46.287975 -116.954940 238 7067ft 187kts
04-May-20 10:39 46.297524 -117.022357 313 9756ft 195kts
04-May-20 10:40 46.339160 -117.072279 319 12383ft 188kts
04-May-20 10:41 46.369220 -117.132844 275 14519ft 185kts
04-May-20 10:42 46.366581 -117.207291 269 16629ft 176kts
04-May-20 10:43 46.360214 -117.278580 247 18313ft 186kts
04-May-20 10:44 46.305652 -117.300402 168 19333ft 257kts
04-May-20 10:45 46.256938 -117.211732 97 19332ft 303kts
04-May-20 10:46 46.232057 -117.091843 112 19330ft 307kts
04-May-20 10:47 46.199429 -116.974719 111 19330ft 308kts
04-May-20 10:48 46.166462 -116.856726 111 19331ft 309kts
04-May-20 10:49 46.116252 -116.756548 152 19333ft 300kts
04-May-20 10:50 46.037274 -116.724599 170 19322ft 291kts
04-May-20 10:51 45.957716 -116.691494 170 19315ft 291kts
04-May-20 10:52 45.878096 -116.658369 170 19312ft 291kts
04-May-20 10:53 45.798744 -116.625460 170 19312ft 290kts
04-May-20 10:54 45.719180 -116.592558 170 19312ft 291kts
04-May-20 10:55 45.639165 -116.559572 170 19313ft 292kts
04-May-20 10:56 45.559223 -116.526711 170 19314ft 292kts
04-May-20 10:57 45.479292 -116.493952 170 19314ft 292kts
04-May-20 10:58 45.399359 -116.461285 170 19305ft 288kts
04-May-20 10:59 45.327473 -116.431896 172 19299ft 243kts
04-May-20 11:00 45.264198 -116.406188 173 19304ft 220kts
04-May-20 11:01 45.205916 -116.382553 173 19303ft 205kts
04-May-20 11:02 45.150988 -116.360335 174 19305ft 196kts
04-May-20 11:03 45.097868 -116.338884 175 19298ft 190kts
04-May-20 11:04 45.046515 -116.318184 175 19299ft 185kts
04-May-20 11:05 44.996348 -116.298001 176 19299ft 182kts
04-May-20 11:06 44.947041 -116.278200 176 19300ft 180kts
04-May-20 11:07 44.897975 -116.258528 176 19300ft 178kts
04-May-20 11:08 44.849363 -116.239062 176 19298ft 177kts
04-May-20 11:09 44.800730 -116.219637 176 19299ft 177kts
04-May-20 11:10 44.752643 -116.206365 193 19300ft 166kts
04-May-20 11:12 44.705515 -116.205562 193 19299ft 165kts
04-May-20 11:13 44.653201 -116.205157 189 19321ft 225kts
04-May-20 11:14 44.581966 -116.204171 188 19305ft 267kts
04-May-20 11:15 44.503709 -116.203179 187 19301ft 279kts
04-May-20 11:16 44.423753 -116.202223 187 19301ft 282kts
04-May-20 11:17 44.343375 -116.201278 187 19279ft 283kts
04-May-20 11:18 44.257875 -116.200346 186 17925ft 311kts
04-May-20 11:19 44.170377 -116.199289 185 16482ft 302kts
04-May-20 11:20 44.085522 -116.198283 185 15335ft 289kts
04-May-20 11:21 44.005273 -116.211969 193 14094ft 291kts
04-May-20 11:22 43.924325 -116.229464 193 12689ft 267kts
04-May-20 11:23 43.857812 -116.244903 193 11037ft 225kts
04-May-20 11:24 43.797161 -116.260311 193 9202ft 213kts
04-May-20 11:25 43.738773 -116.274998 192 8092ft 203kts
04-May-20 11:26 43.682569 -116.286676 188 7466ft 189kts
04-May-20 11:27 43.633035 -116.288520 175 5415ft 162kts
04-May-20 11:27 43.597867 -116.276499 163 3903ft 140kts
04-May-20 11:29 43.570830 -116.238228 118 2938ft 110kts
04-May-20 11:30 43.564141 -116.217150 359 2844ft 9kts
04-May-20 11:30 43.564392 -116.217181 354 2844ft 0kts
04-May-20 11:31 43.564444 -116.217188 356 2844ft 2kts
04-May-20 11:33 43.566865 -116.218547 320 2844ft 0kts
04-May-20 11:33 43.566865 -116.218547 320 2844ft 0kts
04-May-20 11:34 43.566865 -116.218547 320 2844ft 0kts
04-May-20 11:35 43.566865 -116.218547 320 2844ft 0kts
04-May-20 11:36 43.566865 -116.218547 320 2844ft 0kts
04-May-20 11:37 43.566865 -116.218547 320 2844ft 0kts
04-May-20 11:38 43.566865 -116.218547 320 2844ft 0kts
04-May-20 11:39 43.566865 -116.218547 320 2844ft 0kts
04-May-20 11:40 43.566865 -116.218547 320 2844ft 0kts
04-May-20 11:41 43.566865 -116.218547 320 2844ft 0kts
04-May-20 11:42 43.566865 -116.218547 320 2844ft 0kts
04-May-20 11:43 43.566866 -116.218547 320 2844ft 0kts

Navigation Log

Ident Type
Flight plan parsing failed, navigation log unavailable